sensor_id;sensor_type;location;lat;lon;timestamp;pressure;altitude;pressure_sealevel;temperature;humidity
818;BME280;391;51.052;6.954;2022-07-11T00:02:02;101842.13;;;19.43;64.92
818;BME280;391;51.052;6.954;2022-07-11T00:04:06;101842.03;;;19.37;64.93
818;BME280;391;51.052;6.954;2022-07-11T00:06:09;101828.75;;;19.31;65.38
818;BME280;391;51.052;6.954;2022-07-11T00:08:15;101838.59;;;19.40;65.53
818;BME280;391;51.052;6.954;2022-07-11T00:10:18;101828.91;;;19.43;65.32
818;BME280;391;51.052;6.954;2022-07-11T00:12:22;101821.75;;;19.38;65.42
818;BME280;391;51.052;6.954;2022-07-11T00:14:28;101836.00;;;19.46;65.49
818;BME280;391;51.052;6.954;2022-07-11T00:16:32;101827.16;;;19.47;65.31
818;BME280;391;51.052;6.954;2022-07-11T00:18:37;101825.44;;;19.49;65.36
818;BME280;391;51.052;6.954;2022-07-11T00:20:41;101831.63;;;19.51;65.29
818;BME280;391;51.052;6.954;2022-07-11T00:22:45;101820.13;;;19.46;65.52
818;BME280;391;51.052;6.954;2022-07-11T00:24:50;101827.16;;;19.45;65.38
818;BME280;391;51.052;6.954;2022-07-11T00:26:53;101817.41;;;19.41;65.44
818;BME280;391;51.052;6.954;2022-07-11T00:28:57;101825.28;;;19.38;65.70
818;BME280;391;51.052;6.954;2022-07-11T00:31:01;101820.94;;;19.40;65.62
818;BME280;391;51.052;6.954;2022-07-11T00:33:04;101821.75;;;19.36;65.83
818;BME280;391;51.052;6.954;2022-07-11T00:35:08;101817.31;;;19.35;65.84
818;BME280;391;51.052;6.954;2022-07-11T00:37:13;101829.69;;;19.36;66.04
818;BME280;391;51.052;6.954;2022-07-11T00:39:17;101827.03;;;19.35;65.97
818;BME280;391;51.052;6.954;2022-07-11T00:41:22;101815.53;;;19.34;65.94
818;BME280;391;51.052;6.954;2022-07-11T00:43:29;101818.22;;;19.36;65.90
818;BME280;391;51.052;6.954;2022-07-11T00:45:33;101818.19;;;19.34;65.93
818;BME280;391;51.052;6.954;2022-07-11T00:47:39;101820.84;;;19.33;66.11
818;BME280;391;51.052;6.954;2022-07-11T00:49:42;101819.91;;;19.29;66.19
818;BME280;391;51.052;6.954;2022-07-11T00:51:46;101819.06;;;19.30;66.10
818;BME280;391;51.052;6.954;2022-07-11T00:53:50;101813.69;;;19.26;66.36
818;BME280;391;51.052;6.954;2022-07-11T00:55:54;101814.59;;;19.28;66.48
818;BME280;391;51.052;6.954;2022-07-11T00:58:01;101814.63;;;19.29;66.48
818;BME280;391;51.052;6.954;2022-07-11T01:00:10;101819.81;;;19.20;66.76
818;BME280;391;51.052;6.954;2022-07-11T01:02:16;101819.81;;;19.20;66.86
818;BME280;391;51.052;6.954;2022-07-11T01:04:21;101818.00;;;19.16;66.74
818;BME280;391;51.052;6.954;2022-07-11T01:06:25;101813.56;;;19.14;67.04
818;BME280;391;51.052;6.954;2022-07-11T01:08:29;101816.22;;;19.15;67.03
818;BME280;391;51.052;6.954;2022-07-11T01:10:33;101799.38;;;19.06;66.95
818;BME280;391;51.052;6.954;2022-07-11T01:12:38;101815.31;;;19.15;67.16
818;BME280;391;51.052;6.954;2022-07-11T01:14:51;101810.94;;;19.14;67.21
818;BME280;391;51.052;6.954;2022-07-11T01:16:55;101802.06;;;19.10;67.26
818;BME280;391;51.052;6.954;2022-07-11T01:18:59;101808.28;;;19.15;67.02
818;BME280;391;51.052;6.954;2022-07-11T01:21:10;101806.53;;;19.14;67.02
818;BME280;391;51.052;6.954;2022-07-11T01:23:15;101809.19;;;19.16;67.04
818;BME280;391;51.052;6.954;2022-07-11T01:25:19;101790.56;;;19.08;66.94
818;BME280;391;51.052;6.954;2022-07-11T01:27:34;101778.16;;;18.98;67.20
818;BME280;391;51.052;6.954;2022-07-11T01:29:39;101805.63;;;19.11;67.50
818;BME280;391;51.052;6.954;2022-07-11T01:31:43;101800.28;;;19.09;67.32
818;BME280;391;51.052;6.954;2022-07-11T01:33:47;101796.78;;;19.10;67.33
818;BME280;391;51.052;6.954;2022-07-11T01:35:51;101802.91;;;19.06;67.56
818;BME280;391;51.052;6.954;2022-07-11T01:37:55;101805.47;;;19.00;67.68
818;BME280;391;51.052;6.954;2022-07-11T01:40:07;101800.22;;;19.01;67.61
818;BME280;391;51.052;6.954;2022-07-11T01:42:11;101805.47;;;19.00;67.88
818;BME280;391;51.052;6.954;2022-07-11T01:44:14;101797.47;;;18.95;68.04
818;BME280;391;51.052;6.954;2022-07-11T01:46:18;101797.47;;;18.94;68.38
818;BME280;391;51.052;6.954;2022-07-11T01:48:24;101793.94;;;18.92;68.43
818;BME280;391;51.052;6.954;2022-07-11T01:50:28;101792.16;;;18.92;68.48
818;BME280;391;51.052;6.954;2022-07-11T01:52:32;101800.09;;;18.92;68.52
818;BME280;391;51.052;6.954;2022-07-11T01:54:35;101791.19;;;18.86;68.66
818;BME280;391;51.052;6.954;2022-07-11T01:56:40;101792.06;;;18.83;68.83
818;BME280;391;51.052;6.954;2022-07-11T01:58:44;101793.78;;;18.78;68.99
818;BME280;391;51.052;6.954;2022-07-11T02:00:47;101798.19;;;18.81;68.95
818;BME280;391;51.052;6.954;2022-07-11T02:02:51;101787.59;;;18.78;69.05
818;BME280;391;51.052;6.954;2022-07-11T02:04:54;101793.75;;;18.75;69.23
818;BME280;391;51.052;6.954;2022-07-11T02:07:00;101799.88;;;18.73;69.28
818;BME280;391;51.052;6.954;2022-07-11T02:09:04;101794.44;;;18.64;69.84
818;BME280;391;51.052;6.954;2022-07-11T02:11:07;101796.19;;;18.60;70.04
818;BME280;391;51.052;6.954;2022-07-11T02:13:13;101798.84;;;18.62;70.10
818;BME280;391;51.052;6.954;2022-07-11T02:15:17;101798.75;;;18.57;70.20
818;BME280;391;51.052;6.954;2022-07-11T02:17:21;101795.25;;;18.57;70.44
818;BME280;391;51.052;6.954;2022-07-11T02:19:24;101798.72;;;18.54;70.48
818;BME280;391;51.052;6.954;2022-07-11T02:21:28;101796.03;;;18.49;70.59
818;BME280;391;51.052;6.954;2022-07-11T02:23:32;101794.19;;;18.45;70.83
818;BME280;391;51.052;6.954;2022-07-11T02:25:36;101795.94;;;18.43;71.09
818;BME280;391;51.052;6.954;2022-07-11T02:27:41;101802.09;;;18.45;71.21
818;BME280;391;51.052;6.954;2022-07-11T02:29:46;101802.09;;;18.45;71.17
818;BME280;391;51.052;6.954;2022-07-11T02:31:50;101804.75;;;18.45;71.21
818;BME280;391;51.052;6.954;2022-07-11T02:33:54;101802.88;;;18.38;71.48
818;BME280;391;51.052;6.954;2022-07-11T02:35:57;101801.94;;;18.33;71.69
818;BME280;391;51.052;6.954;2022-07-11T02:38:01;101796.56;;;18.29;71.77
818;BME280;391;51.052;6.954;2022-07-11T02:40:06;101801.91;;;18.32;71.93
818;BME280;391;51.052;6.954;2022-07-11T02:42:10;101793.09;;;18.30;72.11
818;BME280;391;51.052;6.954;2022-07-11T02:44:14;101798.41;;;18.31;72.16
818;BME280;391;51.052;6.954;2022-07-11T02:46:19;101791.28;;;18.27;72.11
818;BME280;391;51.052;6.954;2022-07-11T02:48:22;101795.69;;;18.27;72.28
818;BME280;391;51.052;6.954;2022-07-11T02:50:26;101803.47;;;18.18;72.56
818;BME280;391;51.052;6.954;2022-07-11T02:52:30;101751.09;;;17.88;72.97
818;BME280;391;51.052;6.954;2022-07-11T02:54:33;101800.78;;;18.15;72.83
818;BME280;391;51.052;6.954;2022-07-11T02:56:37;101804.25;;;18.11;73.03
818;BME280;391;51.052;6.954;2022-07-11T02:58:40;101800.66;;;18.07;73.56
818;BME280;391;51.052;6.954;2022-07-11T03:00:43;101798.06;;;18.10;73.26
818;BME280;391;51.052;6.954;2022-07-11T03:02:48;101799.84;;;18.13;73.26
818;BME280;391;51.052;6.954;2022-07-11T03:04:51;101804.28;;;18.14;73.36
818;BME280;391;51.052;6.954;2022-07-11T03:06:55;101783.94;;;18.07;73.22
818;BME280;391;51.052;6.954;2022-07-11T03:08:59;101798.19;;;18.18;72.98
818;BME280;391;51.052;6.954;2022-07-11T03:11:03;101807.84;;;18.17;73.09
818;BME280;391;51.052;6.954;2022-07-11T03:13:08;101814.88;;;18.17;73.08
818;BME280;391;51.052;6.954;2022-07-11T03:15:12;101802.53;;;18.14;73.09
818;BME280;391;51.052;6.954;2022-07-11T03:17:16;101805.19;;;18.14;73.33
818;BME280;391;51.052;6.954;2022-07-11T03:19:21;101805.13;;;18.13;73.06
818;BME280;391;51.052;6.954;2022-07-11T03:21:25;101809.50;;;18.09;73.46
818;BME280;391;51.052;6.954;2022-07-11T03:23:29;101812.16;;;18.11;73.54
818;BME280;391;51.052;6.954;2022-07-11T03:25:33;101815.66;;;18.08;73.64
818;BME280;391;51.052;6.954;2022-07-11T03:27:37;101823.56;;;18.08;73.72
818;BME280;391;51.052;6.954;2022-07-11T03:29:40;101819.94;;;18.03;73.97
818;BME280;391;51.052;6.954;2022-07-11T03:31:44;101818.19;;;18.04;73.65
818;BME280;391;51.052;6.954;2022-07-11T03:33:47;101820.00;;;18.06;73.83
818;BME280;391;51.052;6.954;2022-07-11T03:35:52;101819.13;;;18.06;73.91
818;BME280;391;51.052;6.954;2022-07-11T03:37:56;101826.22;;;18.10;73.74
818;BME280;391;51.052;6.954;2022-07-11T03:40:00;101819.19;;;18.09;73.68
818;BME280;391;51.052;6.954;2022-07-11T03:42:06;101824.41;;;18.07;73.88
818;BME280;391;51.052;6.954;2022-07-11T03:44:10;101828.78;;;18.05;73.96
818;BME280;391;51.052;6.954;2022-07-11T03:46:13;101830.50;;;18.03;74.14
818;BME280;391;51.052;6.954;2022-07-11T03:48:17;101834.88;;;18.01;74.26
818;BME280;391;51.052;6.954;2022-07-11T03:50:21;101826.97;;;18.00;74.42
818;BME280;391;51.052;6.954;2022-07-11T03:52:26;101833.09;;;18.00;74.31
818;BME280;391;51.052;6.954;2022-07-11T03:54:30;101833.00;;;17.94;74.65
818;BME280;391;51.052;6.954;2022-07-11T03:56:33;101840.00;;;17.92;74.55
818;BME280;391;51.052;6.954;2022-07-11T03:58:37;101838.28;;;17.94;75.01
818;BME280;391;51.052;6.954;2022-07-11T04:00:41;101832.25;;;18.00;74.73
818;BME280;391;51.052;6.954;2022-07-11T04:02:45;101835.78;;;18.02;74.65
818;BME280;391;51.052;6.954;2022-07-11T04:04:49;101835.81;;;18.05;74.81
818;BME280;391;51.052;6.954;2022-07-11T04:06:52;101833.13;;;18.02;74.39
818;BME280;391;51.052;6.954;2022-07-11T04:08:57;101825.16;;;17.98;74.95
818;BME280;391;51.052;6.954;2022-07-11T04:11:01;101841.06;;;18.02;74.63
818;BME280;391;51.052;6.954;2022-07-11T04:13:04;101834.00;;;18.01;74.96
818;BME280;391;51.052;6.954;2022-07-11T04:15:14;101842.84;;;18.03;74.92
818;BME280;391;51.052;6.954;2022-07-11T04:17:23;101821.59;;;17.96;74.66
818;BME280;391;51.052;6.954;2022-07-11T04:19:32;101840.16;;;18.01;74.53
818;BME280;391;51.052;6.954;2022-07-11T04:21:36;101834.94;;;18.04;75.13
818;BME280;391;51.052;6.954;2022-07-11T04:23:41;101839.31;;;18.04;74.99
818;BME280;391;51.052;6.954;2022-07-11T04:25:47;101848.16;;;18.06;74.81
818;BME280;391;51.052;6.954;2022-07-11T04:27:50;101845.53;;;18.06;74.78
818;BME280;391;51.052;6.954;2022-07-11T04:29:54;101846.28;;;17.98;74.67
818;BME280;391;51.052;6.954;2022-07-11T04:31:58;101837.50;;;18.00;74.80
818;BME280;391;51.052;6.954;2022-07-11T04:34:02;101848.91;;;17.98;75.03
818;BME280;391;51.052;6.954;2022-07-11T04:36:06;101845.38;;;17.98;74.72
818;BME280;391;51.052;6.954;2022-07-11T04:38:10;101848.91;;;17.98;74.85
818;BME280;391;51.052;6.954;2022-07-11T04:40:13;101835.69;;;17.95;74.59
818;BME280;391;51.052;6.954;2022-07-11T04:42:19;101834.66;;;17.87;74.90
818;BME280;391;51.052;6.954;2022-07-11T04:44:23;101846.19;;;17.92;75.13
818;BME280;391;51.052;6.954;2022-07-11T04:46:27;101840.84;;;17.89;75.36
818;BME280;391;51.052;6.954;2022-07-11T04:48:32;101830.97;;;17.78;75.15
818;BME280;391;51.052;6.954;2022-07-11T04:50:35;101838.13;;;17.85;75.35
818;BME280;391;51.052;6.954;2022-07-11T04:52:41;101851.25;;;17.80;75.57
818;BME280;391;51.052;6.954;2022-07-11T04:54:44;101853.84;;;17.79;75.68
818;BME280;391;51.052;6.954;2022-07-11T04:56:48;101851.25;;;17.80;75.97
818;BME280;391;51.052;6.954;2022-07-11T04:58:53;101846.94;;;17.85;75.52
818;BME280;391;51.052;6.954;2022-07-11T05:00:56;101847.72;;;17.80;76.01
818;BME280;391;51.052;6.954;2022-07-11T05:03:00;101852.13;;;17.81;75.74
818;BME280;391;51.052;6.954;2022-07-11T05:05:04;101852.16;;;17.84;76.16
818;BME280;391;51.052;6.954;2022-07-11T05:07:08;101858.38;;;17.86;76.07
818;BME280;391;51.052;6.954;2022-07-11T05:09:12;101856.69;;;17.91;75.92
818;BME280;391;51.052;6.954;2022-07-11T05:11:16;101854.09;;;17.92;75.95
818;BME280;391;51.052;6.954;2022-07-11T05:13:20;101855.84;;;17.92;75.53
818;BME280;391;51.052;6.954;2022-07-11T05:15:25;101855.84;;;17.92;75.83
818;BME280;391;51.052;6.954;2022-07-11T05:17:29;101857.63;;;17.93;76.09
818;BME280;391;51.052;6.954;2022-07-11T05:19:32;101853.22;;;17.92;75.80
818;BME280;391;51.052;6.954;2022-07-11T05:21:36;101867.34;;;17.95;75.51
818;BME280;391;51.052;6.954;2022-07-11T05:23:40;101867.41;;;17.98;75.58
818;BME280;391;51.052;6.954;2022-07-11T05:25:44;101863.00;;;17.99;75.63
818;BME280;391;51.052;6.954;2022-07-11T05:27:47;101871.84;;;18.01;75.80
818;BME280;391;51.052;6.954;2022-07-11T05:29:51;101870.16;;;18.06;75.63
818;BME280;391;51.052;6.954;2022-07-11T05:31:56;101864.00;;;18.06;75.42
818;BME280;391;51.052;6.954;2022-07-11T05:33:59;101868.25;;;17.97;75.76
818;BME280;391;51.052;6.954;2022-07-11T05:36:03;101869.09;;;17.96;76.14
818;BME280;391;51.052;6.954;2022-07-11T05:38:07;101863.81;;;17.95;76.06
818;BME280;391;51.052;6.954;2022-07-11T05:40:12;101877.09;;;18.01;75.80
818;BME280;391;51.052;6.954;2022-07-11T05:42:15;101877.09;;;18.00;76.11
818;BME280;391;51.052;6.954;2022-07-11T05:44:19;101885.88;;;17.98;75.70
818;BME280;391;51.052;6.954;2022-07-11T05:46:22;101891.16;;;17.98;75.90
818;BME280;391;51.052;6.954;2022-07-11T05:48:27;101885.03;;;18.00;76.01
818;BME280;391;51.052;6.954;2022-07-11T05:50:31;101881.44;;;17.96;75.89
818;BME280;391;51.052;6.954;2022-07-11T05:52:34;101884.03;;;17.93;76.05
818;BME280;391;51.052;6.954;2022-07-11T05:54:38;101874.31;;;17.93;75.99
818;BME280;391;51.052;6.954;2022-07-11T05:56:42;101881.44;;;17.97;76.04
818;BME280;391;51.052;6.954;2022-07-11T05:58:46;101878.00;;;18.02;76.26
818;BME280;391;51.052;6.954;2022-07-11T06:00:49;101892.19;;;18.10;75.96
818;BME280;391;51.052;6.954;2022-07-11T06:02:53;101878.16;;;18.11;75.62
818;BME280;391;51.052;6.954;2022-07-11T06:04:58;101878.16;;;18.11;75.85
818;BME280;391;51.052;6.954;2022-07-11T06:07:02;101883.53;;;18.17;76.12
818;BME280;391;51.052;6.954;2022-07-11T06:09:06;101871.19;;;18.14;75.20
818;BME280;391;51.052;6.954;2022-07-11T06:11:10;101886.31;;;18.26;74.86
818;BME280;391;51.052;6.954;2022-07-11T06:13:14;101886.22;;;18.20;74.89
818;BME280;391;51.052;6.954;2022-07-11T06:15:18;101886.31;;;18.24;75.21
818;BME280;391;51.052;6.954;2022-07-11T06:17:21;101889.94;;;18.32;75.03
818;BME280;391;51.052;6.954;2022-07-11T06:19:25;101889.97;;;18.35;74.88
818;BME280;391;51.052;6.954;2022-07-11T06:21:30;101891.94;;;18.48;74.61
818;BME280;391;51.052;6.954;2022-07-11T06:23:34;101885.84;;;18.49;74.28
818;BME280;391;51.052;6.954;2022-07-11T06:25:38;101885.03;;;18.54;73.95
818;BME280;391;51.052;6.954;2022-07-11T06:27:41;101891.13;;;18.49;73.58
818;BME280;391;51.052;6.954;2022-07-11T06:29:52;101871.50;;;18.34;72.80
818;BME280;391;51.052;6.954;2022-07-11T06:31:56;101892.66;;;18.38;72.44
818;BME280;391;51.052;6.954;2022-07-11T06:34:00;101897.06;;;18.36;72.49
818;BME280;391;51.052;6.954;2022-07-11T06:36:05;101890.91;;;18.39;72.53
818;BME280;391;51.052;6.954;2022-07-11T06:38:10;101897.19;;;18.45;72.13
818;BME280;391;51.052;6.954;2022-07-11T06:40:14;101896.25;;;18.42;71.73
818;BME280;391;51.052;6.954;2022-07-11T06:42:20;101893.66;;;18.43;71.85
818;BME280;391;51.052;6.954;2022-07-11T06:44:30;101892.06;;;18.53;72.12
818;BME280;391;51.052;6.954;2022-07-11T06:46:33;101891.38;;;18.68;71.50
818;BME280;391;51.052;6.954;2022-07-11T06:48:38;101896.34;;;19.08;71.18
818;BME280;391;51.052;6.954;2022-07-11T06:50:41;101893.88;;;19.22;70.37
818;BME280;391;51.052;6.954;2022-07-11T06:52:46;101897.31;;;19.15;68.54
818;BME280;391;51.052;6.954;2022-07-11T06:54:52;101881.31;;;19.04;68.67
818;BME280;391;51.052;6.954;2022-07-11T06:56:56;101868.06;;;19.01;68.86
818;BME280;391;51.052;6.954;2022-07-11T06:59:00;101879.78;;;19.23;69.16
818;BME280;391;51.052;6.954;2022-07-11T07:01:05;101881.00;;;19.49;67.98
818;BME280;391;51.052;6.954;2022-07-11T07:03:09;101879.25;;;19.49;67.85
818;BME280;391;51.052;6.954;2022-07-11T07:05:22;101883.72;;;19.57;67.34
818;BME280;391;51.052;6.954;2022-07-11T07:07:26;101835.75;;;19.28;66.95
818;BME280;391;51.052;6.954;2022-07-11T07:09:30;101881.97;;;19.57;67.05
818;BME280;391;51.052;6.954;2022-07-11T07:11:34;101884.56;;;19.52;66.86
818;BME280;391;51.052;6.954;2022-07-11T07:13:38;101889.03;;;19.58;67.71
818;BME280;391;51.052;6.954;2022-07-11T07:15:42;101890.72;;;19.53;66.76
818;BME280;391;51.052;6.954;2022-07-11T07:17:46;101894.22;;;19.49;67.23
818;BME280;391;51.052;6.954;2022-07-11T07:19:50;101890.72;;;19.51;67.17
818;BME280;391;51.052;6.954;2022-07-11T07:21:53;101882.78;;;19.53;66.75
818;BME280;391;51.052;6.954;2022-07-11T07:23:57;101888.03;;;19.45;66.97
818;BME280;391;51.052;6.954;2022-07-11T07:26:01;101897.69;;;19.42;66.99
818;BME280;391;51.052;6.954;2022-07-11T07:28:06;101901.19;;;19.41;67.10
818;BME280;391;51.052;6.954;2022-07-11T07:30:10;101897.44;;;19.24;67.45
818;BME280;391;51.052;6.954;2022-07-11T07:32:14;101904.47;;;19.25;67.82
818;BME280;391;51.052;6.954;2022-07-11T07:34:18;101900.88;;;19.17;67.73
818;BME280;391;51.052;6.954;2022-07-11T07:36:23;101908.06;;;19.28;68.84
818;BME280;391;51.052;6.954;2022-07-11T07:38:26;101897.31;;;19.15;67.92
818;BME280;391;51.052;6.954;2022-07-11T07:40:30;101899.06;;;19.13;68.29
818;BME280;391;51.052;6.954;2022-07-11T07:42:34;101908.72;;;19.12;68.10
818;BME280;391;51.052;6.954;2022-07-11T07:44:46;101870.50;;;18.84;68.33
818;BME280;391;51.052;6.954;2022-07-11T07:46:50;101880.31;;;18.94;68.45
818;BME280;391;51.052;6.954;2022-07-11T07:48:54;101911.38;;;19.11;68.42
818;BME280;391;51.052;6.954;2022-07-11T07:50:58;101883.78;;;18.89;68.40
818;BME280;391;51.052;6.954;2022-07-11T07:53:02;101900.16;;;19.30;69.63
818;BME280;391;51.052;6.954;2022-07-11T07:55:07;101917.03;;;19.39;68.35
818;BME280;391;51.052;6.954;2022-07-11T07:57:11;101881.53;;;19.21;67.66
818;BME280;391;51.052;6.954;2022-07-11T07:59:14;101910.78;;;19.34;68.17
818;BME280;391;51.052;6.954;2022-07-11T08:01:19;101909.88;;;19.34;68.37
818;BME280;391;51.052;6.954;2022-07-11T08:03:37;101911.56;;;19.27;68.80
818;BME280;391;51.052;6.954;2022-07-11T08:05:41;101908.91;;;19.26;68.39
818;BME280;391;51.052;6.954;2022-07-11T08:07:44;101890.41;;;19.26;68.08
818;BME280;391;51.052;6.954;2022-07-11T08:09:48;101883.34;;;19.28;68.97
818;BME280;391;51.052;6.954;2022-07-11T08:11:51;101881.69;;;19.33;68.44
818;BME280;391;51.052;6.954;2022-07-11T08:13:55;101889.63;;;19.36;67.92
818;BME280;391;51.052;6.954;2022-07-11T08:15:59;101906.53;;;19.47;68.40
818;BME280;391;51.052;6.954;2022-07-11T08:18:04;101909.25;;;19.53;68.22
818;BME280;391;51.052;6.954;2022-07-11T08:20:09;101913.91;;;19.74;68.00
818;BME280;391;51.052;6.954;2022-07-11T08:22:12;101908.75;;;19.87;66.93
818;BME280;391;51.052;6.954;2022-07-11T08:24:16;101913.00;;;19.73;66.76
818;BME280;391;51.052;6.954;2022-07-11T08:26:19;101912.88;;;19.63;67.13
818;BME280;391;51.052;6.954;2022-07-11T08:28:23;101910.09;;;19.49;67.20
818;BME280;391;51.052;6.954;2022-07-11T08:30:27;101899.25;;;19.31;67.93
818;BME280;391;51.052;6.954;2022-07-11T08:32:30;101907.28;;;19.38;68.18
818;BME280;391;51.052;6.954;2022-07-11T08:34:35;101905.66;;;19.45;68.43
818;BME280;391;51.052;6.954;2022-07-11T08:36:38;101903.22;;;19.65;67.61
818;BME280;391;51.052;6.954;2022-07-11T08:38:42;101900.47;;;19.56;67.24
818;BME280;391;51.052;6.954;2022-07-11T08:40:49;101903.13;;;19.57;67.19
818;BME280;391;51.052;6.954;2022-07-11T08:42:55;101880.19;;;19.54;68.35
818;BME280;391;51.052;6.954;2022-07-11T08:44:59;101886.59;;;19.78;67.17
818;BME280;391;51.052;6.954;2022-07-11T08:47:03;101909.75;;;20.01;66.74
818;BME280;391;51.052;6.954;2022-07-11T08:49:07;101915.03;;;19.97;65.85
818;BME280;391;51.052;6.954;2022-07-11T08:51:12;101909.00;;;20.13;66.77
818;BME280;391;51.052;6.954;2022-07-11T08:53:16;101882.28;;;19.87;65.37
818;BME280;391;51.052;6.954;2022-07-11T08:55:19;101899.09;;;19.94;66.41
818;BME280;391;51.052;6.954;2022-07-11T08:57:23;101908.81;;;19.96;66.58
818;BME280;391;51.052;6.954;2022-07-11T08:59:27;101914.13;;;19.96;66.17
818;BME280;391;51.052;6.954;2022-07-11T09:01:35;101918.47;;;19.90;66.80
818;BME280;391;51.052;6.954;2022-07-11T09:03:41;101916.78;;;19.98;66.82
818;BME280;391;51.052;6.954;2022-07-11T09:05:45;101907.94;;;19.96;66.78
818;BME280;391;51.052;6.954;2022-07-11T09:07:50;101922.09;;;20.01;66.74
818;BME280;391;51.052;6.954;2022-07-11T09:09:53;101919.50;;;20.05;66.40
818;BME280;391;51.052;6.954;2022-07-11T09:11:57;101915.03;;;20.01;66.73
818;BME280;391;51.052;6.954;2022-07-11T09:14:01;101910.72;;;20.11;67.06
818;BME280;391;51.052;6.954;2022-07-11T09:16:06;101915.16;;;20.17;66.16
818;BME280;391;51.052;6.954;2022-07-11T09:18:29;101928.38;;;20.12;66.52
818;BME280;391;51.052;6.954;2022-07-11T09:20:52;101916.13;;;20.22;66.70
818;BME280;391;51.052;6.954;2022-07-11T09:23:21;101910.94;;;20.29;65.61
818;BME280;391;51.052;6.954;2022-07-11T09:25:42;101918.00;;;20.33;66.04
818;BME280;391;51.052;6.954;2022-07-11T09:27:48;101915.38;;;20.39;65.85
818;BME280;391;51.052;6.954;2022-07-11T09:29:51;101911.03;;;20.46;66.11
818;BME280;391;51.052;6.954;2022-07-11T09:31:55;101903.19;;;20.61;65.35
818;BME280;391;51.052;6.954;2022-07-11T09:34:01;101908.53;;;20.69;65.08
818;BME280;391;51.052;6.954;2022-07-11T09:36:05;101912.13;;;20.77;64.46
818;BME280;391;51.052;6.954;2022-07-11T09:38:10;101912.13;;;20.77;64.08
818;BME280;391;51.052;6.954;2022-07-11T09:40:17;101832.94;;;20.01;65.04
818;BME280;391;51.052;6.954;2022-07-11T09:42:20;101912.75;;;20.42;64.95
818;BME280;391;51.052;6.954;2022-07-11T09:44:25;101914.44;;;20.33;65.10
818;BME280;391;51.052;6.954;2022-07-11T09:46:31;101908.13;;;20.17;65.37
818;BME280;391;51.052;6.954;2022-07-11T09:48:44;101907.16;;;20.07;65.83
818;BME280;391;51.052;6.954;2022-07-11T09:50:57;101910.59;;;19.99;66.13
818;BME280;391;51.052;6.954;2022-07-11T09:53:07;101905.25;;;19.94;66.97
818;BME280;391;51.052;6.954;2022-07-11T09:55:10;101904.41;;;19.98;67.25
818;BME280;391;51.052;6.954;2022-07-11T09:57:37;101907.09;;;20.01;67.41
818;BME280;391;51.052;6.954;2022-07-11T09:59:41;101895.63;;;20.04;67.56
818;BME280;391;51.052;6.954;2022-07-11T10:01:45;101907.28;;;20.20;67.09
818;BME280;391;51.052;6.954;2022-07-11T10:03:48;101876.38;;;20.23;66.84
818;BME280;391;51.052;6.954;2022-07-11T10:05:58;101887.13;;;20.35;66.33
818;BME280;391;51.052;6.954;2022-07-11T10:08:05;101866.63;;;20.18;66.20
818;BME280;391;51.052;6.954;2022-07-11T10:10:09;101893.25;;;20.33;66.08
818;BME280;391;51.052;6.954;2022-07-11T10:12:13;101897.75;;;20.41;66.18
818;BME280;391;51.052;6.954;2022-07-11T10:14:18;101905.66;;;20.32;66.87
818;BME280;391;51.052;6.954;2022-07-11T10:16:28;101904.78;;;20.38;66.52
818;BME280;391;51.052;6.954;2022-07-11T10:18:40;101899.34;;;20.23;66.18
818;BME280;391;51.052;6.954;2022-07-11T10:20:52;101896.56;;;20.07;66.66
818;BME280;391;51.052;6.954;2022-07-11T10:23:06;101917.97;;;20.29;66.49
818;BME280;391;51.052;6.954;2022-07-11T10:25:17;101909.13;;;20.27;66.85
818;BME280;391;51.052;6.954;2022-07-11T10:27:29;101925.13;;;20.39;66.27
818;BME280;391;51.052;6.954;2022-07-11T10:29:49;101923.34;;;20.38;66.44
818;BME280;391;51.052;6.954;2022-07-11T10:32:04;101915.31;;;20.27;66.23
818;BME280;391;51.052;6.954;2022-07-11T10:34:17;101928.53;;;20.27;66.33
818;BME280;391;51.052;6.954;2022-07-11T10:36:29;101929.47;;;20.29;66.69
818;BME280;391;51.052;6.954;2022-07-11T10:38:32;101927.66;;;20.27;67.08
818;BME280;391;51.052;6.954;2022-07-11T10:40:47;101922.38;;;20.30;66.77
818;BME280;391;51.052;6.954;2022-07-11T10:42:51;101926.69;;;20.23;66.89
818;BME280;391;51.052;6.954;2022-07-11T10:44:55;101898.34;;;20.08;66.80
818;BME280;391;51.052;6.954;2022-07-11T10:46:59;101910.72;;;20.10;66.89
818;BME280;391;51.052;6.954;2022-07-11T10:49:15;101930.19;;;20.18;66.78
818;BME280;391;51.052;6.954;2022-07-11T10:51:25;101928.41;;;20.15;67.41
818;BME280;391;51.052;6.954;2022-07-11T10:53:31;101927.47;;;20.08;67.33
818;BME280;391;51.052;6.954;2022-07-11T10:55:39;101932.81;;;20.10;67.17
818;BME280;391;51.052;6.954;2022-07-11T10:57:50;101921.22;;;20.02;67.27
818;BME280;391;51.052;6.954;2022-07-11T11:00:01;101927.59;;;20.22;67.48
818;BME280;391;51.052;6.954;2022-07-11T11:02:09;101918.03;;;20.35;66.44
818;BME280;391;51.052;6.954;2022-07-11T11:04:41;101926.09;;;20.53;66.84
818;BME280;391;51.052;6.954;2022-07-11T11:07:06;101927.06;;;20.63;65.66
818;BME280;391;51.052;6.954;2022-07-11T11:09:36;101926.28;;;20.79;65.88
818;BME280;391;51.052;6.954;2022-07-11T11:11:47;101921.88;;;20.79;65.45
818;BME280;391;51.052;6.954;2022-07-11T11:14:18;101917.34;;;20.65;65.15
818;BME280;391;51.052;6.954;2022-07-11T11:16:23;101911.91;;;20.43;66.07
818;BME280;391;51.052;6.954;2022-07-11T11:18:40;101923.38;;;20.44;65.19
818;BME280;391;51.052;6.954;2022-07-11T11:20:44;101941.88;;;20.36;65.14
818;BME280;391;51.052;6.954;2022-07-11T11:23:07;101947.19;;;20.38;65.46
818;BME280;391;51.052;6.954;2022-07-11T11:25:11;101927.78;;;20.40;65.42
818;BME280;391;51.052;6.954;2022-07-11T11:27:26;101933.09;;;20.42;65.04
818;BME280;391;51.052;6.954;2022-07-11T11:29:30;101914.56;;;20.46;64.94
818;BME280;391;51.052;6.954;2022-07-11T11:31:35;101929.66;;;20.56;64.50
818;BME280;391;51.052;6.954;2022-07-11T11:33:38;101926.16;;;20.61;63.91